KTA weather

Karratha Airport
Karratha, Western Australia, Australia

Public forecast

Using degrees Celsius for public forecast. Weather courtesy of forecast.io.

METAR (pilot weather report)

Closest report is Barrow Island Airport, 77.3 nm (143.1 km) W. Retrieved 2018/08/15 05:00 UTC (52 minutes ago):

YBWX 150500Z AUTO 20006KT //// // ////// 23/14 Q1017

TAF (pilot weather forecast)

Forecast is more than 12 hours old.

Closest forecast is Port Hedland International Airport, 106.1 nm (196.5 km) E. Retrieved 2018/08/14 00:36 UTC (1 day ago):

TAF YPPD 142301Z 1500/1524 12010KT CAVOK FM150600 34014KT CAVOK FM151200 20008KT CAVOK